Time;durP1;ratioP1;P1;durP2;ratioP2;P2;SDS_P1;SDS_P2;PMS_P1;PMS_P2;Temp;Humidity;BMP_temperature;BMP_pressure;BME280_temperature;BME280_humidity;BME280_pressure;Samples;Min_cycle;Max_cycle;Signal;HPM_P1;HPM_P2
2024/03/16 00:00:33;;;;;;;;;1.00;0.00;;;;;17.18;100.00;100930.88;2115605;27;46329;-58
2024/03/16 00:01:33;;;;;;;;;1.00;0.00;;;;;17.11;100.00;100949.06;2116784;27;46311;-59
2024/03/16 00:02:34;;;;;;;;;1.00;1.00;;;;;17.12;100.00;100942.75;2117212;27;45119;-57
2024/03/16 00:03:35;;;;;;;;;2.75;1.00;;;;;17.11;100.00;100940.13;2116192;27;47014;-56
2024/03/16 00:04:35;;;;;;;;;0.00;0.00;;;;;17.13;100.00;100940.94;2117403;27;46307;-58
2024/03/16 00:05:39;;;;;;;;;0.67;0.00;;;;;17.15;100.00;100955.13;2117925;27;46309;-57
2024/03/16 00:06:39;;;;;;;;;0.00;0.00;;;;;17.13;100.00;100943.63;2111525;27;46135;-57
2024/03/16 00:07:40;;;;;;;;;0.00;0.00;;;;;17.13;100.00;100948.97;2112116;27;46816;-58
2024/03/16 00:08:40;;;;;;;;;0.00;0.00;;;;;17.12;100.00;100953.47;2117685;27;45969;-59
2024/03/16 00:09:40;;;;;;;;;0.00;0.00;;;;;17.11;100.00;100950.88;2107470;27;46853;-60
2024/03/16 00:10:41;;;;;;;;;0.00;0.00;;;;;17.13;100.00;100954.34;2104333;27;46702;-60
2024/03/16 00:11:41;;;;;;;;;0.00;0.00;;;;;17.11;100.00;100951.72;2106851;27;46459;-59
2024/03/16 00:12:41;;;;;;;;;0.00;0.00;;;;;17.11;100.00;100959.78;2107072;27;46245;-58
2024/03/16 00:13:42;;;;;;;;;0.00;0.00;;;;;17.12;100.00;100952.59;2107101;27;46613;-59
2024/03/16 00:14:44;;;;;;;;;0.00;0.00;;;;;17.11;100.00;100954.41;2107369;27;46742;-58
2024/03/16 00:15:48;;;;;;;;;0.00;0.00;;;;;17.12;100.00;100957.97;2107036;27;46481;-59
2024/03/16 00:16:49;;;;;;;;;0.00;0.00;;;;;17.11;100.00;100969.63;2107937;27;46373;-59
2024/03/16 00:17:49;;;;;;;;;0.00;0.00;;;;;17.10;100.00;100965.22;2099515;28;47600;-60
2024/03/16 00:18:50;;;;;;;;;0.00;0.00;;;;;17.09;100.00;100953.63;2097079;28;46297;-57
2024/03/16 00:19:50;;;;;;;;;0.00;0.00;;;;;17.09;100.00;100958.97;2106941;27;46761;-60
2024/03/16 00:20:50;;;;;;;;;1.00;0.00;;;;;17.06;100.00;100949.28;2108593;27;46611;-58
2024/03/16 00:21:51;;;;;;;;;0.00;0.00;;;;;17.03;100.00;100957.47;2107939;27;46708;-56
2024/03/16 00:22:51;;;;;;;;;0.00;0.00;;;;;17.00;100.00;100937.94;2082077;28;46222;-59
2024/03/16 00:23:53;;;;;;;;;0.00;0.00;;;;;17.02;100.00;100955.72;2081958;28;46869;-60
2024/03/16 00:24:53;;;;;;;;;0.00;0.00;;;;;17.03;100.00;100957.47;2098551;28;46733;-58
2024/03/16 00:25:55;;;;;;;;;0.67;0.00;;;;;17.04;100.00;100969.06;2097864;28;45934;-59
2024/03/16 00:26:57;;;;;;;;;0.00;0.00;;;;;17.01;100.00;100961.13;2107071;27;46966;-56
2024/03/16 00:27:57;;;;;;;;;0.00;0.00;;;;;17.00;100.00;100968.28;2108109;27;46817;-56
2024/03/16 00:28:58;;;;;;;;;0.00;0.00;;;;;17.03;100.00;100956.59;2106569;27;48588;-58
2024/03/16 00:30:04;;;;;;;;;0.00;0.00;;;;;17.04;100.00;100959.19;2108237;27;46355;-57
2024/03/16 00:31:04;;;;;;;;;0.00;0.00;;;;;17.02;100.00;100958.41;2106876;27;46816;-58
2024/03/16 00:32:05;;;;;;;;;0.00;0.00;;;;;17.03;100.00;100964.63;2107782;27;46734;-57
2024/03/16 00:33:07;;;;;;;;;0.00;0.00;;;;;17.01;100.00;100970.03;2107163;27;45987;-58
2024/03/16 00:34:08;;;;;;;;;0.00;0.00;;;;;17.04;100.00;100963.69;2106976;27;46837;-59
2024/03/16 00:35:08;;;;;;;;;4.75;0.00;;;;;17.03;100.00;100962.81;2107733;27;46469;-58
2024/03/16 00:36:09;;;;;;;;;0.00;0.00;;;;;17.02;100.00;100961.09;2090639;28;46376;-58
2024/03/16 00:37:09;;;;;;;;;0.00;0.00;;;;;17.02;100.00;100962.84;2089948;28;45798;-60
2024/03/16 00:38:10;;;;;;;;;0.00;0.00;;;;;16.96;100.00;100957.78;2088797;28;45977;-58
2024/03/16 00:39:18;;;;;;;;;0.00;0.00;;;;;16.92;100.00;100958.88;2089722;28;47044;-57
2024/03/16 00:40:19;;;;;;;;;0.00;0.00;;;;;16.89;100.00;100965.22;2107790;27;46455;-58
2024/03/16 00:41:20;;;;;;;;;0.00;0.00;;;;;17.02;100.00;100966.44;2111480;27;46537;-59
2024/03/16 00:42:20;;;;;;;;;0.00;0.00;;;;;17.05;100.00;100963.63;2117668;27;46347;-60
2024/03/16 00:43:20;;;;;;;;;0.00;0.00;;;;;17.00;100.00;100970.97;2116983;27;47304;-57
2024/03/16 00:44:21;;;;;;;;;0.00;0.00;;;;;16.90;100.00;100966.13;2117467;27;46860;-58
2024/03/16 00:45:21;;;;;;;;;0.00;0.00;;;;;16.87;100.00;100968.91;2115057;27;47530;-57
2024/03/16 00:46:21;;;;;;;;;0.00;0.00;;;;;16.86;100.00;100970.72;2117383;27;46372;-60
2024/03/16 00:47:21;;;;;;;;;0.00;0.00;;;;;16.85;100.00;100968.09;2098306;28;46207;-59
2024/03/16 00:48:22;;;;;;;;;0.00;0.00;;;;;16.84;100.00;100971.72;2098177;28;46529;-60
2024/03/16 00:49:22;;;;;;;;;0.00;0.00;;;;;16.83;100.00;100973.53;2116200;27;47208;-59
2024/03/16 00:50:23;;;;;;;;;0.00;0.00;;;;;16.83;100.00;100978.03;2117090;27;46955;-57
2024/03/16 00:51:23;;;;;;;;;0.00;0.00;;;;;16.82;100.00;100968.25;2116540;27;46143;-57
2024/03/16 00:52:23;;;;;;;;;0.00;0.00;;;;;16.83;100.00;100978.91;2117096;27;46639;-56
2024/03/16 00:53:24;;;;;;;;;0.00;0.00;;;;;16.83;100.00;100975.34;2116575;27;46332;-59
2024/03/16 00:54:24;;;;;;;;;0.00;0.00;;;;;16.83;100.00;100976.22;2117208;27;46630;-58
2024/03/16 00:55:24;;;;;;;;;0.00;0.00;;;;;16.85;100.00;100981.50;2117331;27;46580;-56
2024/03/16 00:56:25;;;;;;;;;0.00;0.00;;;;;16.84;100.00;100975.28;2115302;27;45056;-56
2024/03/16 00:57:25;;;;;;;;;0.00;0.00;;;;;16.84;100.00;100979.78;2116418;27;46873;-58
2024/03/16 00:58:27;;;;;;;;;0.00;0.00;;;;;16.82;100.00;100987.88;2117114;27;46337;-58
2024/03/16 00:59:28;;;;;;;;;0.00;0.00;;;;;16.83;100.00;100988.75;2115892;27;46851;-58
2024/03/16 01:00:31;;;;;;;;;0.00;0.00;;;;;16.88;100.00;100994.78;2117392;27;47003;-58
2024/03/16 01:01:34;;;;;;;;;0.00;0.00;;;;;16.82;100.00;100997.72;2117359;27;46814;-58
2024/03/16 01:02:34;;;;;;;;;0.00;0.00;;;;;16.83;100.00;100999.47;2115269;27;47043;-57
2024/03/16 01:03:35;;;;;;;;;0.00;0.00;;;;;16.93;100.00;101000.81;2116351;27;46317;-59
2024/03/16 01:04:36;;;;;;;;;0.00;0.00;;;;;16.98;100.00;101010.41;2116550;27;46252;-58
2024/03/16 01:05:37;;;;;;;;;0.00;0.00;;;;;16.97;100.00;101005.97;2117767;27;46740;-58
2024/03/16 01:06:37;;;;;;;;;0.00;0.00;;;;;16.96;100.00;100998.88;2116116;27;46222;-57
2024/03/16 01:07:37;;;;;;;;;0.00;0.00;;;;;16.95;100.00;100994.44;2117014;27;46624;-58
2024/03/16 01:08:37;;;;;;;;;0.00;0.00;;;;;16.95;100.00;101007.84;2101735;27;46249;-56
2024/03/16 01:09:38;;;;;;;;;0.00;0.00;;;;;16.95;100.00;100997.13;2102006;27;46432;-59
2024/03/16 01:10:38;;;;;;;;;0.00;0.00;;;;;16.94;100.00;101005.25;2116343;27;46205;-57
2024/03/16 01:11:39;;;;;;;;;0.00;0.00;;;;;16.96;100.00;101003.38;2117857;27;46404;-58
2024/03/16 01:12:39;;;;;;;;;0.00;0.00;;;;;16.94;100.00;101010.59;2117613;27;46377;-59
2024/03/16 01:13:39;;;;;;;;;0.00;0.00;;;;;16.92;100.00;100996.41;2116863;27;46514;-58
2024/03/16 01:14:40;;;;;;;;;0.00;0.00;;;;;16.83;100.00;101010.19;2116867;27;46735;-56
2024/03/16 01:15:40;;;;;;;;;0.00;0.00;;;;;16.80;100.00;101007.66;2111531;27;46435;-59
2024/03/16 01:16:41;;;;;;;;;0.00;0.00;;;;;16.78;100.00;101010.41;2102470;27;46248;-59
2024/03/16 01:17:41;;;;;;;;;0.00;0.00;;;;;16.77;100.00;101012.22;2102477;27;46321;-59
2024/03/16 01:18:42;;;;;;;;;0.00;0.00;;;;;16.77;100.00;101011.34;2111228;27;46272;-59
2024/03/16 01:19:43;;;;;;;;;0.00;0.00;;;;;16.76;100.00;101022.97;2111590;27;46266;-57
2024/03/16 01:20:45;;;;;;;;;0.00;0.00;;;;;16.76;100.00;101025.66;2111355;27;46014;-59
2024/03/16 01:21:45;;;;;;;;;0.00;0.00;;;;;16.73;100.00;101013.25;2110709;27;46542;-58
2024/03/16 01:22:45;;;;;;;;;0.00;0.00;;;;;16.73;100.00;101018.63;2111844;27;46343;-58
2024/03/16 01:23:46;;;;;;;;;0.00;0.00;;;;;16.74;100.00;101014.13;2112337;27;46313;-60
2024/03/16 01:24:46;;;;;;;;;0.00;0.00;;;;;16.75;100.00;101014.06;2110358;27;47382;-60
2024/03/16 01:25:47;;;;;;;;;1.00;0.00;;;;;16.77;100.00;101024.75;2110554;27;46149;-59
2024/03/16 01:26:47;;;;;;;;;0.00;0.00;;;;;16.73;100.00;101015.06;2109429;27;45926;-58
2024/03/16 01:27:47;;;;;;;;;0.00;0.00;;;;;16.70;100.00;101020.56;2111896;27;46600;-59
2024/03/16 01:28:48;;;;;;;;;0.00;0.00;;;;;16.69;100.00;101027.72;2110611;27;46648;-57
2024/03/16 01:29:48;;;;;;;;;0.00;0.00;;;;;16.69;100.00;101025.06;2111092;27;46469;-57
2024/03/16 01:30:48;;;;;;;;;0.00;0.00;;;;;16.69;100.00;101016.13;2110799;27;46279;-59
2024/03/16 01:31:49;;;;;;;;;0.00;0.00;;;;;16.69;100.00;101022.38;2090840;28;46800;-59
2024/03/16 01:32:49;;;;;;;;;0.00;0.00;;;;;16.70;100.00;101020.56;2089693;28;47127;-58
2024/03/16 01:33:51;;;;;;;;;0.00;0.00;;;;;16.78;100.00;101023.81;2110368;27;46777;-59
2024/03/16 01:34:51;;;;;;;;;0.00;0.00;;;;;16.70;100.00;101025.91;2103489;27;46392;-59
2024/03/16 01:35:53;;;;;;;;;0.00;0.00;;;;;16.69;100.00;101026.84;2102922;27;46799;-59
2024/03/16 01:36:53;;;;;;;;;0.00;0.00;;;;;16.67;100.00;101036.75;2111238;27;46861;-56
2024/03/16 01:37:54;;;;;;;;;0.00;0.00;;;;;16.68;100.00;101036.72;2110563;27;46799;-58
2024/03/16 01:38:54;;;;;;;;;0.00;0.00;;;;;16.70;100.00;101034.84;2110569;27;46571;-59
2024/03/16 01:39:55;;;;;;;;;0.00;0.00;;;;;16.66;100.00;101033.19;2103848;27;46841;-58
2024/03/16 01:40:55;;;;;;;;;0.00;0.00;;;;;16.72;100.00;101038.31;2102047;27;46245;-58
2024/03/16 01:41:56;;;;;;;;;0.00;0.00;;;;;16.71;100.00;101033.03;2110466;27;46549;-57
2024/03/16 01:42:56;;;;;;;;;0.00;0.00;;;;;16.70;100.00;101029.47;2110590;27;46260;-58
2024/03/16 01:44:10;;;;;;;;;0.00;0.00;;;;;16.71;100.00;101038.38;2091116;28;45634;-58
2024/03/16 01:45:14;;;;;;;;;0.00;0.00;;;;;16.69;100.00;101033.09;2094756;27;46399;-59
2024/03/16 01:46:15;;;;;;;;;0.00;0.00;;;;;16.69;100.00;101033.09;2110199;27;46475;-58
2024/03/16 01:47:16;;;;;;;;;0.00;0.00;;;;;16.68;100.00;101035.84;2112204;27;46345;-60
2024/03/16 01:48:17;;;;;;;;;0.00;0.00;;;;;16.77;100.00;101036.34;2116586;27;46963;-59
2024/03/16 01:49:17;;;;;;;;;0.00;0.00;;;;;16.79;100.00;101038.06;2117531;27;46368;-60
2024/03/16 01:50:21;;;;;;;;;0.00;0.00;;;;;16.82;100.00;101037.94;2116207;27;46470;-58
2024/03/16 01:51:21;;;;;;;;;0.00;0.00;;;;;16.82;100.00;101033.44;2098270;28;46858;-57
2024/03/16 01:52:22;;;;;;;;;0.00;0.00;;;;;16.77;100.00;101039.00;2098460;28;46729;-61
2024/03/16 01:53:22;;;;;;;;;0.00;0.00;;;;;16.79;100.00;101038.94;2115748;27;46162;-58
2024/03/16 01:54:23;;;;;;;;;0.00;0.00;;;;;16.80;100.00;101043.38;2117204;27;46464;-58
2024/03/16 01:55:24;;;;;;;;;0.00;0.00;;;;;16.79;100.00;101046.13;2116372;27;45611;-59
2024/03/16 01:56:24;;;;;;;;;0.00;0.00;;;;;16.76;100.00;101047.97;2116489;27;46409;-59
2024/03/16 01:57:24;;;;;;;;;0.00;0.00;;;;;16.79;100.00;101044.31;2117025;27;45649;-58
2024/03/16 01:58:25;;;;;;;;;0.00;0.00;;;;;16.81;100.00;101045.09;2106209;27;46338;-59
2024/03/16 01:59:25;;;;;;;;;0.00;0.00;;;;;16.81;100.00;101061.19;2106198;27;46129;-60
2024/03/16 02:00:28;;;;;;;;;0.00;0.00;;;;;16.80;100.00;101051.41;2115700;27;46070;-60
2024/03/16 02:01:31;;;;;;;;;0.00;0.00;;;;;16.82;100.00;101051.34;2113285;27;46753;-59
2024/03/16 02:02:33;;;;;;;;;0.00;0.00;;;;;16.76;100.00;101047.09;2115830;27;46558;-58
2024/03/16 02:03:34;;;;;;;;;0.00;0.00;;;;;16.79;100.00;101046.13;2098217;28;46610;-60
2024/03/16 02:04:34;;;;;;;;;0.00;0.00;;;;;16.79;100.00;101043.44;2098930;28;47191;-59
2024/03/16 02:05:36;;;;;;;;;0.00;0.00;;;;;16.77;100.00;101051.53;2111193;27;46236;-59
2024/03/16 02:06:36;;;;;;;;;0.00;0.00;;;;;16.77;100.00;101048.88;2112071;27;47027;-58
2024/03/16 02:07:37;;;;;;;;;0.00;0.00;;;;;16.76;100.00;101052.44;2116403;27;45927;-59
2024/03/16 02:08:38;;;;;;;;;0.00;0.00;;;;;16.74;100.00;101038.25;2116493;27;46959;-58
2024/03/16 02:09:39;;;;;;;;;0.00;0.00;;;;;16.72;100.00;101053.53;2106064;27;46928;-59
2024/03/16 02:10:39;;;;;;;;;0.00;0.00;;;;;16.70;100.00;101053.59;2106610;27;46182;-58
2024/03/16 02:11:39;;;;;;;;;0.00;0.00;;;;;16.67;100.00;101053.72;2116766;27;46796;-57
2024/03/16 02:12:41;;;;;;;;;0.00;0.00;;;;;16.67;100.00;101064.44;2116674;27;46851;-58
2024/03/16 02:13:41;;;;;;;;;0.00;0.00;;;;;16.69;100.00;101059.03;2116494;27;46448;-58
2024/03/16 02:14:42;;;;;;;;;0.00;0.00;;;;;16.73;100.00;101058.81;2109923;27;46623;-57
2024/03/16 02:15:42;;;;;;;;;0.00;0.00;;;;;16.71;100.00;101065.19;2111200;27;46579;-58
2024/03/16 02:16:44;;;;;;;;;0.00;0.00;;;;;16.71;100.00;101058.00;2115910;27;46501;-58
2024/03/16 02:17:46;;;;;;;;;0.00;0.00;;;;;16.68;100.00;101058.16;2116015;27;47289;-58
2024/03/16 02:18:46;;;;;;;;;0.00;0.00;;;;;16.71;100.00;101063.38;2113741;27;47793;-57
2024/03/16 02:19:47;;;;;;;;;0.00;0.00;;;;;16.62;100.00;101063.72;2107160;27;46397;-58
2024/03/16 02:20:47;;;;;;;;;0.00;0.00;;;;;16.61;100.00;101066.47;2108875;27;46826;-59
2024/03/16 02:21:48;;;;;;;;;0.00;0.00;;;;;16.60;100.00;101073.63;2108305;27;46435;-56
2024/03/16 02:22:49;;;;;;;;;0.00;0.00;;;;;16.53;100.00;101058.75;2107926;27;46702;-58
2024/03/16 02:23:50;;;;;;;;;0.00;0.00;;;;;16.59;100.00;101062.97;2115845;27;45279;-57
2024/03/16 02:24:50;;;;;;;;;0.00;0.00;;;;;16.59;100.00;101065.66;2115487;27;46100;-57
2024/03/16 02:25:50;;;;;;;;;0.00;0.00;;;;;16.60;100.00;101068.25;2115435;27;46203;-57
2024/03/16 02:26:51;;;;;;;;;0.00;0.00;;;;;16.59;100.00;101069.19;2115859;27;46916;-57
2024/03/16 02:27:51;;;;;;;;;0.00;0.00;;;;;16.59;100.00;101076.38;2117065;27;46470;-59
2024/03/16 02:28:52;;;;;;;;;0.00;0.00;;;;;16.60;100.00;101070.94;2116601;27;46789;-56
2024/03/16 02:29:52;;;;;;;;;0.00;0.00;;;;;16.73;100.00;101082.06;2115633;27;46290;-57
2024/03/16 02:30:53;;;;;;;;;0.00;0.00;;;;;16.71;100.00;101066.06;2115790;27;46250;-57
2024/03/16 02:31:56;;;;;;;;;0.00;0.00;;;;;16.70;100.00;101068.81;2116691;27;46200;-56
2024/03/16 02:32:56;;;;;;;;;0.00;0.00;;;;;16.69;100.00;101065.25;2116380;27;46652;-59
2024/03/16 02:33:58;;;;;;;;;0.00;0.00;;;;;16.72;100.00;101075.84;2115692;27;47113;-55
2024/03/16 02:34:58;;;;;;;;;0.00;0.00;;;;;16.72;100.00;101080.31;2114938;27;46551;-58
2024/03/16 02:35:58;;;;;;;;;0.00;0.00;;;;;16.70;100.00;101077.72;2117278;27;46287;-57
2024/03/16 02:36:59;;;;;;;;;0.00;0.00;;;;;16.70;100.00;101077.72;2116596;27;46130;-59
2024/03/16 02:38:00;;;;;;;;;0.00;0.00;;;;;16.71;100.00;101083.94;2116379;27;46967;-58
2024/03/16 02:39:00;;;;;;;;;0.00;0.00;;;;;16.73;100.00;101082.06;2116302;27;46086;-57
2024/03/16 02:40:03;;;;;;;;;0.00;0.00;;;;;16.72;100.00;101083.88;2115842;27;46692;-57
2024/03/16 02:41:07;;;;;;;;;0.00;0.00;;;;;16.68;100.00;101086.75;2115760;27;46567;-56
2024/03/16 02:42:07;;;;;;;;;0.00;0.00;;;;;16.77;100.00;101083.69;2117186;27;46564;-58
2024/03/16 02:43:09;;;;;;;;;0.00;0.00;;;;;16.82;100.00;101084.38;2108079;27;46837;-58
2024/03/16 02:44:09;;;;;;;;;0.00;0.00;;;;;16.82;100.00;101092.41;2110985;27;46687;-57
2024/03/16 02:45:10;;;;;;;;;0.00;0.00;;;;;16.82;100.00;101095.09;2115810;27;46204;-57
2024/03/16 02:46:11;;;;;;;;;0.00;0.00;;;;;16.82;100.00;101086.19;2114364;27;46229;-59
2024/03/16 02:47:11;;;;;;;;;0.00;0.00;;;;;16.82;100.00;101087.06;2115163;27;46244;-57
2024/03/16 02:48:11;;;;;;;;;0.00;0.00;;;;;16.82;100.00;101087.06;2116518;27;46419;-59
2024/03/16 02:49:12;;;;;;;;;0.00;0.00;;;;;16.72;100.00;101091.03;2119568;27;46230;-59
2024/03/16 02:50:12;;;;;;;;;0.00;0.00;;;;;16.82;100.00;101080.81;2119703;27;46665;-57
2024/03/16 02:51:13;;;;;;;;;0.00;0.00;;;;;16.83;100.00;101093.28;2114016;27;46216;-58
2024/03/16 02:52:13;;;;;;;;;0.00;0.00;;;;;16.84;100.00;101097.72;2115621;27;46714;-56
2024/03/16 02:53:13;;;;;;;;;0.00;0.00;;;;;16.84;100.00;101098.59;2100122;27;46283;-57
2024/03/16 02:54:15;;;;;;;;;0.00;0.00;;;;;16.84;100.00;101093.22;2102965;27;46340;-57
2024/03/16 02:55:15;;;;;;;;;0.00;0.00;;;;;16.83;100.00;101099.53;2116735;27;46735;-57
2024/03/16 02:56:15;;;;;;;;;0.00;0.00;;;;;16.84;100.00;101093.22;2115664;27;46344;-57
2024/03/16 02:57:16;;;;;;;;;0.00;0.00;;;;;16.84;100.00;101095.91;2110561;27;45908;-56
2024/03/16 02:58:16;;;;;;;;;0.00;0.00;;;;;16.82;100.00;101092.41;2111045;27;46441;-59
2024/03/16 02:59:16;;;;;;;;;0.00;0.00;;;;;16.83;100.00;101096.84;2117072;27;45409;-58
2024/03/16 03:00:18;;;;;;;;;0.00;0.00;;;;;16.83;100.00;101096.84;2117200;27;46482;-59
2024/03/16 03:01:19;;;;;;;;;0.00;0.00;;;;;16.83;100.00;101104.00;2115868;27;46581;-57
2024/03/16 03:02:23;;;;;;;;;0.00;0.00;;;;;16.81;100.00;101100.53;2115440;27;46525;-56
2024/03/16 03:03:24;;;;;;;;;0.00;0.00;;;;;16.81;100.00;101098.72;2116352;27;46863;-55
2024/03/16 03:04:24;;;;;;;;;0.00;0.00;;;;;16.83;100.00;101109.38;2116250;27;45674;-59
2024/03/16 03:05:25;;;;;;;;;0.00;0.00;;;;;16.81;100.00;101101.41;2115696;27;46909;-57
2024/03/16 03:06:28;;;;;;;;;0.00;0.00;;;;;16.79;100.00;101091.69;2115670;27;46598;-59
2024/03/16 03:07:28;;;;;;;;;0.00;0.00;;;;;16.80;100.00;101099.66;2115739;27;46684;-59
2024/03/16 03:08:32;;;;;;;;;0.00;0.00;;;;;16.79;100.00;101107.75;2114542;27;47439;-58
2024/03/16 03:09:33;;;;;;;;;0.00;0.00;;;;;16.79;100.00;101105.94;2116606;27;46582;-58
2024/03/16 03:10:33;;;;;;;;;0.00;0.00;;;;;16.74;100.00;101108.81;2115753;27;46249;-59
2024/03/16 03:11:34;;;;;;;;;0.00;0.00;;;;;16.70;100.00;101107.19;2115517;27;46912;-58
2024/03/16 03:12:34;;;;;;;;;0.00;0.00;;;;;16.76;100.00;101109.59;2115770;27;46371;-58
2024/03/16 03:13:34;;;;;;;;;0.00;0.00;;;;;16.77;100.00;101105.16;2115337;27;46674;-59
2024/03/16 03:14:35;;;;;;;;;0.00;0.00;;;;;16.80;100.00;101118.41;2115968;27;46260;-58
2024/03/16 03:15:35;;;;;;;;;0.00;0.00;;;;;16.81;100.00;101111.25;2115931;27;45549;-59
2024/03/16 03:16:35;;;;;;;;;0.00;0.00;;;;;16.80;100.00;101121.09;2116106;27;46402;-58
2024/03/16 03:17:36;;;;;;;;;0.00;0.00;;;;;16.82;100.00;101119.22;2115391;27;46624;-60
2024/03/16 03:18:36;;;;;;;;;0.00;0.00;;;;;16.79;100.00;101118.47;2115987;27;46625;-59
2024/03/16 03:19:36;;;;;;;;;0.00;0.00;;;;;16.80;100.00;101110.38;2114749;27;46439;-59
2024/03/16 03:20:37;;;;;;;;;0.00;0.00;;;;;16.80;100.00;101117.53;2115533;27;45826;-57
2024/03/16 03:21:37;;;;;;;;;0.00;0.00;;;;;16.75;100.00;101115.91;2117334;27;46515;-59
2024/03/16 03:22:37;;;;;;;;;0.00;0.00;;;;;16.79;100.00;101121.16;2115153;27;46404;-58
2024/03/16 03:23:38;;;;;;;;;0.00;0.00;;;;;16.79;100.00;101115.81;2116721;27;46200;-60
2024/03/16 03:24:38;;;;;;;;;0.00;0.00;;;;;16.78;100.00;101117.59;2116391;27;46780;-57
2024/03/16 03:25:38;;;;;;;;;0.00;0.00;;;;;16.77;100.00;101119.41;2116160;27;46275;-57
2024/03/16 03:26:39;;;;;;;;;0.00;0.00;;;;;16.76;100.00;101120.31;2114488;27;46820;-57
2024/03/16 03:27:39;;;;;;;;;0.00;0.00;;;;;16.76;100.00;101119.44;2116391;27;46548;-59
2024/03/16 03:28:40;;;;;;;;;0.00;0.00;;;;;16.72;100.00;101121.41;2115594;27;45411;-57
2024/03/16 03:29:40;;;;;;;;;0.00;0.00;;;;;16.73;100.00;101119.59;2116146;27;46574;-58
2024/03/16 03:30:43;;;;;;;;;0.00;0.00;;;;;16.74;100.00;101121.34;2115907;27;46364;-57
2024/03/16 03:31:44;;;;;;;;;0.00;0.00;;;;;16.73;100.00;101124.94;2115076;27;46708;-59
2024/03/16 03:32:44;;;;;;;;;0.00;0.00;;;;;16.71;100.00;101119.66;2116545;27;46595;-56
2024/03/16 03:33:44;;;;;;;;;0.00;0.00;;;;;16.72;100.00;101121.41;2117125;27;46346;-58
2024/03/16 03:34:45;;;;;;;;;0.00;0.00;;;;;16.65;100.00;101119.88;2117666;27;46681;-60
2024/03/16 03:35:45;;;;;;;;;0.00;0.00;;;;;16.57;100.00;101126.47;2115166;27;46542;-57
2024/03/16 03:36:45;;;;;;;;;0.00;0.00;;;;;16.56;100.00;101127.41;2116523;27;45532;-56
2024/03/16 03:37:46;;;;;;;;;0.00;0.00;;;;;16.53;100.00;101131.09;2116600;27;46487;-58
2024/03/16 03:38:46;;;;;;;;;0.00;0.00;;;;;16.52;100.00;101134.72;2116467;27;46670;-59
2024/03/16 03:39:48;;;;;;;;;0.00;0.00;;;;;16.51;100.00;101137.41;2116212;27;46595;-57
2024/03/16 03:40:48;;;;;;;;;0.00;0.00;;;;;16.53;100.00;101136.44;2117171;27;46498;-59
2024/03/16 03:41:49;;;;;;;;;0.00;0.00;;;;;16.48;100.00;101133.94;2119150;27;45628;-58
2024/03/16 03:42:52;;;;;;;;;0.00;0.00;;;;;16.49;100.00;101142.84;2116862;27;46707;-58
2024/03/16 03:43:59;;;;;;;;;0.00;0.00;;;;;16.51;100.00;101142.78;2116018;27;46939;-56
2024/03/16 03:45:11;;;;;;;;;0.00;0.00;;;;;16.51;100.00;101146.31;2112072;27;46791;-58
2024/03/16 03:46:13;;;;;;;;;0.00;0.00;;;;;16.49;100.00;101150.88;2111542;27;45990;-59
2024/03/16 03:47:13;;;;;;;;;0.00;0.00;;;;;16.48;100.00;101143.78;2110939;27;46302;-58
2024/03/16 03:49:31;;;;;;;;;0.00;0.00;;;;;16.48;100.00;101146.44;2111683;27;45986;-57
2024/03/16 03:50:32;;;;;;;;;1.25;0.00;;;;;16.48;100.00;101157.16;2112139;27;46928;-56
2024/03/16 03:51:33;;;;;;;;;0.00;0.00;;;;;16.59;100.00;101152.28;2110853;27;45824;-57
2024/03/16 03:52:33;;;;;;;;;0.00;0.00;;;;;16.61;100.00;101149.53;2111498;27;46545;-57
2024/03/16 03:53:33;;;;;;;;;0.00;0.00;;;;;16.61;100.00;101147.72;2110739;27;46559;-58
2024/03/16 03:54:34;;;;;;;;;0.00;0.00;;;;;16.62;100.00;101157.50;2112179;27;46428;-58
2024/03/16 03:55:34;;;;;;;;;0.00;0.00;;;;;16.63;100.00;101150.31;2111252;27;46730;-56
2024/03/16 03:56:35;;;;;;;;;0.00;0.00;;;;;16.64;100.00;101157.44;2109594;27;46219;-58
2024/03/16 03:57:35;;;;;;;;;0.00;0.00;;;;;16.65;100.00;101154.72;2109445;27;46233;-56
2024/03/16 03:58:35;;;;;;;;;0.00;0.00;;;;;16.66;100.00;101163.63;2110478;27;46515;-58
2024/03/16 03:59:36;;;;;;;;;0.00;0.00;;;;;16.67;100.00;101160.00;2111023;27;45816;-58
2024/03/16 04:00:37;;;;;;;;;0.00;0.00;;;;;16.67;100.00;101162.69;2101522;27;46284;-59
2024/03/16 04:01:37;;;;;;;;;0.00;0.00;;;;;16.65;100.00;101169.94;2095470;28;46961;-59
2024/03/16 04:02:38;;;;;;;;;0.00;0.00;;;;;16.55;100.00;101164.03;2081379;28;46683;-59
2024/03/16 04:03:38;;;;;;;;;0.00;0.00;;;;;16.54;100.00;101159.63;2090105;28;46234;-59
2024/03/16 04:04:40;;;;;;;;;0.00;0.00;;;;;16.64;100.00;101166.38;2111134;27;46193;-59
2024/03/16 04:05:41;;;;;;;;;0.00;0.00;;;;;16.66;100.00;101169.00;2093785;28;46408;-59
2024/03/16 04:06:44;;;;;;;;;0.00;0.00;;;;;16.67;100.00;101173.41;2094934;27;46381;-58
2024/03/16 04:07:44;;;;;;;;;0.00;0.00;;;;;16.67;100.00;101176.09;2111567;27;47254;-59
2024/03/16 04:08:45;;;;;;;;;0.00;0.00;;;;;16.66;100.00;101177.91;2111299;27;46342;-58
2024/03/16 04:09:47;;;;;;;;;0.00;0.00;;;;;16.66;100.00;101182.38;2112497;27;46281;-59
2024/03/16 04:10:47;;;;;;;;;0.00;0.00;;;;;16.66;100.00;101179.72;2111951;27;46557;-60
2024/03/16 04:11:47;;;;;;;;;0.00;0.00;;;;;16.53;100.00;101182.00;2111453;27;46386;-58
2024/03/16 04:12:48;;;;;;;;;0.00;0.00;;;;;16.49;100.00;101183.91;2111113;27;46187;-57
2024/03/16 04:13:48;;;;;;;;;0.00;0.00;;;;;16.48;100.00;101183.97;2111879;27;46274;-57
2024/03/16 04:14:48;;;;;;;;;0.00;0.00;;;;;16.42;100.00;101187.75;2110580;27;45685;-59
2024/03/16 04:15:49;;;;;;;;;0.00;0.00;;;;;16.57;100.00;101188.09;2109971;27;46314;-60
2024/03/16 04:16:49;;;;;;;;;0.00;0.00;;;;;16.58;100.00;101187.16;2115217;27;46467;-59
2024/03/16 04:17:50;;;;;;;;;0.00;0.00;;;;;16.57;100.00;101188.97;2116008;27;46286;-58
2024/03/16 04:18:50;;;;;;;;;0.00;0.00;;;;;16.56;100.00;101194.41;2117299;27;46091;-58
2024/03/16 04:19:51;;;;;;;;;0.00;0.00;;;;;16.55;100.00;101185.47;2117086;27;46747;-58
2024/03/16 04:20:52;;;;;;;;;0.00;0.00;;;;;16.56;100.00;101189.03;2111481;27;46231;-58
2024/03/16 04:21:52;;;;;;;;;0.00;0.00;;;;;16.57;100.00;101190.78;2111777;27;46471;-59
2024/03/16 04:22:52;;;;;;;;;0.00;0.00;;;;;16.54;100.00;101189.09;2117369;27;46732;-59
2024/03/16 04:23:53;;;;;;;;;0.00;0.00;;;;;16.53;100.00;101187.34;2116332;27;46498;-59
2024/03/16 04:24:53;;;;;;;;;0.00;0.00;;;;;16.53;100.00;101190.03;2116637;27;46250;-59
2024/03/16 04:25:54;;;;;;;;;0.00;0.00;;;;;16.53;100.00;101186.47;2116556;27;45998;-59
2024/03/16 04:26:54;;;;;;;;;0.00;0.00;;;;;16.52;100.00;101187.41;2117389;27;46505;-59
2024/03/16 04:27:55;;;;;;;;;0.00;0.00;;;;;16.56;100.00;101187.22;2117808;27;46790;-58
2024/03/16 04:28:55;;;;;;;;;0.00;0.00;;;;;16.60;100.00;101190.66;2108837;27;46261;-58
2024/03/16 04:29:55;;;;;;;;;0.00;0.00;;;;;16.57;100.00;101190.78;2110996;27;46271;-59
2024/03/16 04:30:56;;;;;;;;;0.00;0.00;;;;;16.53;100.00;101191.84;2115860;27;46464;-57
2024/03/16 04:31:56;;;;;;;;;0.00;0.00;;;;;16.54;100.00;101188.22;2116666;27;45910;-60
2024/03/16 04:32:56;;;;;;;;;0.00;0.00;;;;;16.53;100.00;101198.06;2116538;27;46282;-59
2024/03/16 04:33:56;;;;;;;;;0.00;0.00;;;;;16.54;100.00;101194.47;2117411;27;46764;-57
2024/03/16 04:34:57;;;;;;;;;0.00;0.00;;;;;16.53;100.00;101200.75;2116554;27;46499;-60
2024/03/16 04:35:57;;;;;;;;;0.00;0.00;;;;;16.53;100.00;101198.06;2117139;27;46659;-58
2024/03/16 04:36:57;;;;;;;;;0.00;0.00;;;;;16.52;100.00;101201.69;2117190;27;46703;-58
2024/03/16 04:37:58;;;;;;;;;0.00;0.00;;;;;16.59;100.00;101204.97;2115953;27;46775;-57
2024/03/16 04:38:58;;;;;;;;;0.00;0.00;;;;;16.62;100.00;101207.53;2117202;27;46172;-59
2024/03/16 04:39:58;;;;;;;;;0.00;0.00;;;;;16.63;100.00;101203.94;2099020;28;46270;-58
2024/03/16 04:40:59;;;;;;;;;0.00;0.00;;;;;16.63;100.00;101209.28;2100204;28;46462;-58